sensor_id;sensor_type;location;lat;lon;timestamp;P1;durP1;ratioP1;P2;durP2;ratioP2
38264;SDS011;24062;47.480;8.768;2024-03-08T00:00:58;4.73;;;4.37;;
38264;SDS011;24062;47.480;8.768;2024-03-08T00:03:25;4.50;;;4.20;;
38264;SDS011;24062;47.480;8.768;2024-03-08T00:05:54;4.00;;;3.70;;
38264;SDS011;24062;47.480;8.768;2024-03-08T00:08:22;3.97;;;3.67;;
38264;SDS011;24062;47.480;8.768;2024-03-08T00:10:50;5.00;;;4.60;;
38264;SDS011;24062;47.480;8.768;2024-03-08T00:13:17;4.10;;;3.80;;
38264;SDS011;24062;47.480;8.768;2024-03-08T00:15:43;4.80;;;4.40;;
38264;SDS011;24062;47.480;8.768;2024-03-08T00:18:10;4.27;;;3.97;;
38264;SDS011;24062;47.480;8.768;2024-03-08T00:20:37;4.50;;;4.17;;
38264;SDS011;24062;47.480;8.768;2024-03-08T00:23:04;4.50;;;4.20;;
38264;SDS011;24062;47.480;8.768;2024-03-08T00:25:32;4.70;;;4.30;;
38264;SDS011;24062;47.480;8.768;2024-03-08T00:27:59;4.40;;;4.10;;
38264;SDS011;24062;47.480;8.768;2024-03-08T00:30:26;4.40;;;4.00;;
38264;SDS011;24062;47.480;8.768;2024-03-08T00:32:53;4.63;;;4.23;;
38264;SDS011;24062;47.480;8.768;2024-03-08T00:35:19;4.70;;;3.83;;
38264;SDS011;24062;47.480;8.768;2024-03-08T00:37:47;4.00;;;3.67;;
38264;SDS011;24062;47.480;8.768;2024-03-08T00:40:15;4.47;;;4.07;;
38264;SDS011;24062;47.480;8.768;2024-03-08T00:42:43;4.80;;;4.40;;
38264;SDS011;24062;47.480;8.768;2024-03-08T00:45:10;4.50;;;4.10;;
38264;SDS011;24062;47.480;8.768;2024-03-08T00:47:38;7.40;;;4.00;;
38264;SDS011;24062;47.480;8.768;2024-03-08T00:50:05;4.50;;;4.10;;
38264;SDS011;24062;47.480;8.768;2024-03-08T00:52:33;3.70;;;3.40;;
38264;SDS011;24062;47.480;8.768;2024-03-08T00:55:00;4.27;;;3.93;;
38264;SDS011;24062;47.480;8.768;2024-03-08T00:57:27;4.20;;;3.90;;
38264;SDS011;24062;47.480;8.768;2024-03-08T00:59:55;4.13;;;3.80;;
38264;SDS011;24062;47.480;8.768;2024-03-08T01:02:22;4.10;;;3.80;;
38264;SDS011;24062;47.480;8.768;2024-03-08T01:04:49;4.17;;;3.87;;
38264;SDS011;24062;47.480;8.768;2024-03-08T01:07:16;4.33;;;4.00;;
38264;SDS011;24062;47.480;8.768;2024-03-08T01:09:43;3.97;;;3.57;;
38264;SDS011;24062;47.480;8.768;2024-03-08T01:12:10;4.23;;;3.90;;
38264;SDS011;24062;47.480;8.768;2024-03-08T01:14:36;4.03;;;3.73;;
38264;SDS011;24062;47.480;8.768;2024-03-08T01:17:05;3.80;;;3.50;;
38264;SDS011;24062;47.480;8.768;2024-03-08T01:19:31;4.10;;;3.80;;
38264;SDS011;24062;47.480;8.768;2024-03-08T01:21:58;3.57;;;3.27;;
38264;SDS011;24062;47.480;8.768;2024-03-08T01:24:25;4.00;;;3.63;;
38264;SDS011;24062;47.480;8.768;2024-03-08T01:26:52;4.47;;;4.07;;
38264;SDS011;24062;47.480;8.768;2024-03-08T01:29:19;3.97;;;3.67;;
38264;SDS011;24062;47.480;8.768;2024-03-08T01:31:45;4.50;;;4.10;;
38264;SDS011;24062;47.480;8.768;2024-03-08T01:34:14;4.40;;;4.10;;
38264;SDS011;24062;47.480;8.768;2024-03-08T01:36:41;3.90;;;3.60;;
38264;SDS011;24062;47.480;8.768;2024-03-08T01:39:07;3.73;;;3.43;;
38264;SDS011;24062;47.480;8.768;2024-03-08T01:41:35;4.07;;;3.73;;
38264;SDS011;24062;47.480;8.768;2024-03-08T01:44:02;4.10;;;3.80;;
38264;SDS011;24062;47.480;8.768;2024-03-08T01:46:30;3.70;;;3.40;;
38264;SDS011;24062;47.480;8.768;2024-03-08T01:48:57;4.40;;;3.50;;
38264;SDS011;24062;47.480;8.768;2024-03-08T01:51:27;3.67;;;3.37;;
38264;SDS011;24062;47.480;8.768;2024-03-08T01:53:54;4.30;;;4.00;;
38264;SDS011;24062;47.480;8.768;2024-03-08T01:56:23;3.70;;;3.40;;
38264;SDS011;24062;47.480;8.768;2024-03-08T01:58:51;3.90;;;3.60;;
38264;SDS011;24062;47.480;8.768;2024-03-08T02:01:18;3.90;;;3.60;;
38264;SDS011;24062;47.480;8.768;2024-03-08T02:03:45;4.07;;;3.77;;
38264;SDS011;24062;47.480;8.768;2024-03-08T02:06:12;3.53;;;3.23;;
38264;SDS011;24062;47.480;8.768;2024-03-08T02:08:42;4.10;;;3.67;;
38264;SDS011;24062;47.480;8.768;2024-03-08T02:11:10;4.20;;;3.83;;
38264;SDS011;24062;47.480;8.768;2024-03-08T02:13:37;3.83;;;3.43;;
38264;SDS011;24062;47.480;8.768;2024-03-08T02:16:04;3.50;;;3.20;;
38264;SDS011;24062;47.480;8.768;2024-03-08T02:18:33;4.00;;;3.60;;
38264;SDS011;24062;47.480;8.768;2024-03-08T02:21:02;3.90;;;3.50;;
38264;SDS011;24062;47.480;8.768;2024-03-08T02:23:30;4.40;;;3.20;;
38264;SDS011;24062;47.480;8.768;2024-03-08T02:25:57;3.40;;;3.10;;
38264;SDS011;24062;47.480;8.768;2024-03-08T02:28:24;4.30;;;4.00;;
38264;SDS011;24062;47.480;8.768;2024-03-08T02:30:51;3.23;;;2.93;;
38264;SDS011;24062;47.480;8.768;2024-03-08T02:33:19;3.50;;;3.20;;
38264;SDS011;24062;47.480;8.768;2024-03-08T02:35:47;3.87;;;3.57;;
38264;SDS011;24062;47.480;8.768;2024-03-08T02:38:17;3.70;;;3.40;;
38264;SDS011;24062;47.480;8.768;2024-03-08T02:40:46;3.90;;;3.60;;
38264;SDS011;24062;47.480;8.768;2024-03-08T02:43:14;3.30;;;3.00;;
38264;SDS011;24062;47.480;8.768;2024-03-08T02:45:42;3.33;;;3.03;;
38264;SDS011;24062;47.480;8.768;2024-03-08T02:48:10;3.43;;;3.17;;
38264;SDS011;24062;47.480;8.768;2024-03-08T02:50:37;3.73;;;3.43;;
38264;SDS011;24062;47.480;8.768;2024-03-08T02:53:05;4.20;;;3.30;;
38264;SDS011;24062;47.480;8.768;2024-03-08T02:55:34;3.70;;;3.40;;
38264;SDS011;24062;47.480;8.768;2024-03-08T02:58:01;3.13;;;2.83;;
38264;SDS011;24062;47.480;8.768;2024-03-08T03:00:28;2.83;;;2.63;;
38264;SDS011;24062;47.480;8.768;2024-03-08T03:02:55;2.97;;;2.67;;
38264;SDS011;24062;47.480;8.768;2024-03-08T03:05:22;3.47;;;3.17;;
38264;SDS011;24062;47.480;8.768;2024-03-08T03:07:50;3.00;;;2.80;;
38264;SDS011;24062;47.480;8.768;2024-03-08T03:10:17;3.23;;;2.93;;
38264;SDS011;24062;47.480;8.768;2024-03-08T03:12:48;2.63;;;2.43;;
38264;SDS011;24062;47.480;8.768;2024-03-08T03:15:15;3.43;;;3.13;;
38264;SDS011;24062;47.480;8.768;2024-03-08T03:17:45;3.10;;;2.80;;
38264;SDS011;24062;47.480;8.768;2024-03-08T03:20:12;3.20;;;2.90;;
38264;SDS011;24062;47.480;8.768;2024-03-08T03:22:47;2.87;;;2.57;;
38264;SDS011;24062;47.480;8.768;2024-03-08T03:25:16;2.90;;;2.70;;
38264;SDS011;24062;47.480;8.768;2024-03-08T03:27:50;3.23;;;2.93;;
38264;SDS011;24062;47.480;8.768;2024-03-08T03:30:17;2.43;;;2.23;;
38264;SDS011;24062;47.480;8.768;2024-03-08T03:32:47;3.17;;;2.47;;
38264;SDS011;24062;47.480;8.768;2024-03-08T03:35:14;3.00;;;2.80;;
38264;SDS011;24062;47.480;8.768;2024-03-08T03:37:42;2.57;;;2.37;;
38264;SDS011;24062;47.480;8.768;2024-03-08T03:40:11;2.90;;;2.67;;
38264;SDS011;24062;47.480;8.768;2024-03-08T03:42:39;3.90;;;2.80;;
38264;SDS011;24062;47.480;8.768;2024-03-08T03:45:08;2.30;;;2.10;;
38264;SDS011;24062;47.480;8.768;2024-03-08T03:47:35;2.90;;;2.70;;
38264;SDS011;24062;47.480;8.768;2024-03-08T03:50:03;2.80;;;2.60;;
38264;SDS011;24062;47.480;8.768;2024-03-08T03:52:31;5.20;;;2.80;;
38264;SDS011;24062;47.480;8.768;2024-03-08T03:54:58;2.63;;;2.43;;
38264;SDS011;24062;47.480;8.768;2024-03-08T03:57:25;2.60;;;2.40;;
38264;SDS011;24062;47.480;8.768;2024-03-08T03:59:51;2.83;;;2.63;;
38264;SDS011;24062;47.480;8.768;2024-03-08T04:02:19;2.70;;;2.50;;
38264;SDS011;24062;47.480;8.768;2024-03-08T04:04:46;2.53;;;2.33;;
38264;SDS011;24062;47.480;8.768;2024-03-08T04:07:14;3.07;;;2.50;;
38264;SDS011;24062;47.480;8.768;2024-03-08T04:09:41;2.97;;;2.77;;
38264;SDS011;24062;47.480;8.768;2024-03-08T04:12:08;2.60;;;2.40;;
38264;SDS011;24062;47.480;8.768;2024-03-08T04:14:35;3.83;;;2.70;;
38264;SDS011;24062;47.480;8.768;2024-03-08T04:17:02;2.90;;;2.60;;
38264;SDS011;24062;47.480;8.768;2024-03-08T04:19:31;5.30;;;2.67;;
38264;SDS011;24062;47.480;8.768;2024-03-08T04:21:59;2.50;;;2.30;;
38264;SDS011;24062;47.480;8.768;2024-03-08T04:24:27;2.20;;;2.00;;
38264;SDS011;24062;47.480;8.768;2024-03-08T04:26:55;2.80;;;2.60;;
38264;SDS011;24062;47.480;8.768;2024-03-08T04:29:22;3.50;;;2.30;;
38264;SDS011;24062;47.480;8.768;2024-03-08T04:31:49;2.77;;;2.47;;
38264;SDS011;24062;47.480;8.768;2024-03-08T04:34:19;2.60;;;2.13;;
38264;SDS011;24062;47.480;8.768;2024-03-08T04:36:47;3.00;;;2.70;;
38264;SDS011;24062;47.480;8.768;2024-03-08T04:39:14;2.30;;;2.10;;
38264;SDS011;24062;47.480;8.768;2024-03-08T04:41:41;2.40;;;2.20;;
38264;SDS011;24062;47.480;8.768;2024-03-08T04:44:09;2.83;;;2.53;;
38264;SDS011;24062;47.480;8.768;2024-03-08T04:46:37;2.50;;;2.10;;
38264;SDS011;24062;47.480;8.768;2024-03-08T04:49:04;2.43;;;2.23;;
38264;SDS011;24062;47.480;8.768;2024-03-08T04:51:32;2.70;;;2.50;;
38264;SDS011;24062;47.480;8.768;2024-03-08T04:54:01;2.33;;;2.13;;
38264;SDS011;24062;47.480;8.768;2024-03-08T04:56:27;2.30;;;2.10;;
38264;SDS011;24062;47.480;8.768;2024-03-08T04:58:54;2.37;;;2.13;;
38264;SDS011;24062;47.480;8.768;2024-03-08T05:01:21;2.50;;;2.30;;
38264;SDS011;24062;47.480;8.768;2024-03-08T05:03:48;2.60;;;2.40;;
38264;SDS011;24062;47.480;8.768;2024-03-08T05:06:15;2.40;;;2.20;;
38264;SDS011;24062;47.480;8.768;2024-03-08T05:08:42;5.10;;;2.77;;
38264;SDS011;24062;47.480;8.768;2024-03-08T05:11:10;2.70;;;2.50;;
38264;SDS011;24062;47.480;8.768;2024-03-08T05:13:39;2.50;;;2.10;;
38264;SDS011;24062;47.480;8.768;2024-03-08T05:16:06;2.40;;;2.20;;
38264;SDS011;24062;47.480;8.768;2024-03-08T05:18:33;2.70;;;2.50;;
38264;SDS011;24062;47.480;8.768;2024-03-08T05:21:01;2.50;;;2.30;;
38264;SDS011;24062;47.480;8.768;2024-03-08T05:23:29;2.33;;;2.13;;
38264;SDS011;24062;47.480;8.768;2024-03-08T05:25:55;2.77;;;2.57;;
38264;SDS011;24062;47.480;8.768;2024-03-08T05:28:24;2.90;;;2.40;;
38264;SDS011;24062;47.480;8.768;2024-03-08T05:30:51;4.03;;;2.67;;
38264;SDS011;24062;47.480;8.768;2024-03-08T05:33:17;3.17;;;2.87;;
38264;SDS011;24062;47.480;8.768;2024-03-08T05:35:44;2.67;;;2.47;;
38264;SDS011;24062;47.480;8.768;2024-03-08T05:38:11;3.43;;;3.13;;
38264;SDS011;24062;47.480;8.768;2024-03-08T05:40:38;2.57;;;2.30;;
38264;SDS011;24062;47.480;8.768;2024-03-08T05:43:05;2.90;;;2.70;;
38264;SDS011;24062;47.480;8.768;2024-03-08T05:45:33;3.27;;;2.30;;
38264;SDS011;24062;47.480;8.768;2024-03-08T05:48:00;2.80;;;2.33;;
38264;SDS011;24062;47.480;8.768;2024-03-08T05:50:26;2.70;;;2.40;;
38264;SDS011;24062;47.480;8.768;2024-03-08T05:52:53;3.00;;;2.80;;
38264;SDS011;24062;47.480;8.768;2024-03-08T05:55:20;2.40;;;2.20;;
38264;SDS011;24062;47.480;8.768;2024-03-08T05:57:49;2.60;;;2.40;;
38264;SDS011;24062;47.480;8.768;2024-03-08T06:00:19;2.33;;;2.13;;
38264;SDS011;24062;47.480;8.768;2024-03-08T06:02:48;3.53;;;2.90;;
38264;SDS011;24062;47.480;8.768;2024-03-08T06:05:15;2.60;;;2.40;;
38264;SDS011;24062;47.480;8.768;2024-03-08T06:07:42;4.00;;;2.70;;
38264;SDS011;24062;47.480;8.768;2024-03-08T06:10:09;6.63;;;2.80;;
38264;SDS011;24062;47.480;8.768;2024-03-08T06:12:37;2.97;;;2.47;;
38264;SDS011;24062;47.480;8.768;2024-03-08T06:15:06;4.53;;;1.93;;
38264;SDS011;24062;47.480;8.768;2024-03-08T06:17:34;5.20;;;2.97;;
38264;SDS011;24062;47.480;8.768;2024-03-08T06:20:03;3.10;;;2.80;;
38264;SDS011;24062;47.480;8.768;2024-03-08T06:22:35;2.67;;;2.47;;
38264;SDS011;24062;47.480;8.768;2024-03-08T06:25:02;4.20;;;2.60;;
38264;SDS011;24062;47.480;8.768;2024-03-08T06:27:30;3.03;;;2.73;;
38264;SDS011;24062;47.480;8.768;2024-03-08T06:29:59;3.70;;;2.80;;
38264;SDS011;24062;47.480;8.768;2024-03-08T06:32:25;3.53;;;2.70;;
38264;SDS011;24062;47.480;8.768;2024-03-08T06:34:52;5.13;;;3.13;;
38264;SDS011;24062;47.480;8.768;2024-03-08T06:37:20;3.30;;;3.00;;
38264;SDS011;24062;47.480;8.768;2024-03-08T06:39:48;4.03;;;2.93;;
38264;SDS011;24062;47.480;8.768;2024-03-08T06:42:16;3.53;;;3.23;;
38264;SDS011;24062;47.480;8.768;2024-03-08T06:44:43;3.00;;;2.70;;
38264;SDS011;24062;47.480;8.768;2024-03-08T06:47:14;4.03;;;3.40;;
38264;SDS011;24062;47.480;8.768;2024-03-08T06:49:41;4.63;;;3.47;;
38264;SDS011;24062;47.480;8.768;2024-03-08T06:52:08;3.47;;;3.17;;
38264;SDS011;24062;47.480;8.768;2024-03-08T06:54:36;3.20;;;2.90;;
38264;SDS011;24062;47.480;8.768;2024-03-08T06:57:03;3.13;;;2.83;;
38264;SDS011;24062;47.480;8.768;2024-03-08T06:59:31;3.20;;;2.90;;
38264;SDS011;24062;47.480;8.768;2024-03-08T07:01:58;4.33;;;3.00;;
38264;SDS011;24062;47.480;8.768;2024-03-08T07:04:25;3.30;;;3.00;;
38264;SDS011;24062;47.480;8.768;2024-03-08T07:06:54;3.27;;;2.97;;
38264;SDS011;24062;47.480;8.768;2024-03-08T07:09:22;5.07;;;3.17;;
38264;SDS011;24062;47.480;8.768;2024-03-08T07:11:51;6.90;;;3.63;;
38264;SDS011;24062;47.480;8.768;2024-03-08T07:14:20;3.33;;;3.00;;
38264;SDS011;24062;47.480;8.768;2024-03-08T07:16:47;2.83;;;2.63;;
38264;SDS011;24062;47.480;8.768;2024-03-08T07:19:14;3.43;;;3.13;;
38264;SDS011;24062;47.480;8.768;2024-03-08T07:21:41;3.67;;;3.33;;
38264;SDS011;24062;47.480;8.768;2024-03-08T07:24:09;4.53;;;2.90;;
38264;SDS011;24062;47.480;8.768;2024-03-08T07:26:54;3.83;;;2.70;;
38264;SDS011;24062;47.480;8.768;2024-03-08T07:29:21;3.50;;;3.20;;
38264;SDS011;24062;47.480;8.768;2024-03-08T07:31:47;3.43;;;3.13;;
38264;SDS011;24062;47.480;8.768;2024-03-08T07:34:23;3.10;;;2.70;;
38264;SDS011;24062;47.480;8.768;2024-03-08T07:36:49;3.93;;;3.63;;
38264;SDS011;24062;47.480;8.768;2024-03-08T07:39:16;5.23;;;3.17;;
38264;SDS011;24062;47.480;8.768;2024-03-08T07:41:44;3.33;;;3.00;;
38264;SDS011;24062;47.480;8.768;2024-03-08T07:44:12;3.40;;;3.10;;
38264;SDS011;24062;47.480;8.768;2024-03-08T07:46:39;3.00;;;2.70;;
38264;SDS011;24062;47.480;8.768;2024-03-08T07:49:06;4.20;;;3.00;;
38264;SDS011;24062;47.480;8.768;2024-03-08T07:51:36;3.50;;;3.20;;
38264;SDS011;24062;47.480;8.768;2024-03-08T07:54:02;3.73;;;3.33;;
38264;SDS011;24062;47.480;8.768;2024-03-08T07:56:30;5.60;;;3.50;;
38264;SDS011;24062;47.480;8.768;2024-03-08T07:58:57;3.20;;;2.90;;
38264;SDS011;24062;47.480;8.768;2024-03-08T08:01:25;2.97;;;2.53;;
38264;SDS011;24062;47.480;8.768;2024-03-08T08:03:52;3.40;;;3.10;;
38264;SDS011;24062;47.480;8.768;2024-03-08T08:06:19;3.43;;;3.13;;
38264;SDS011;24062;47.480;8.768;2024-03-08T08:08:45;5.90;;;3.00;;
38264;SDS011;24062;47.480;8.768;2024-03-08T08:11:12;5.13;;;2.93;;
38264;SDS011;24062;47.480;8.768;2024-03-08T08:13:40;5.70;;;3.10;;
38264;SDS011;24062;47.480;8.768;2024-03-08T08:16:08;3.17;;;2.70;;
38264;SDS011;24062;47.480;8.768;2024-03-08T08:18:37;3.30;;;2.97;;
38264;SDS011;24062;47.480;8.768;2024-03-08T08:21:04;3.50;;;3.10;;
38264;SDS011;24062;47.480;8.768;2024-03-08T08:23:31;3.70;;;3.03;;
38264;SDS011;24062;47.480;8.768;2024-03-08T08:25:58;3.00;;;2.70;;
38264;SDS011;24062;47.480;8.768;2024-03-08T08:28:26;3.23;;;2.70;;
38264;SDS011;24062;47.480;8.768;2024-03-08T08:30:53;3.23;;;2.93;;
38264;SDS011;24062;47.480;8.768;2024-03-08T08:33:20;5.23;;;3.27;;
38264;SDS011;24062;47.480;8.768;2024-03-08T08:35:48;3.90;;;2.83;;
38264;SDS011;24062;47.480;8.768;2024-03-08T08:38:18;3.37;;;3.07;;
38264;SDS011;24062;47.480;8.768;2024-03-08T08:40:47;2.80;;;2.50;;
38264;SDS011;24062;47.480;8.768;2024-03-08T08:43:15;3.13;;;2.53;;
38264;SDS011;24062;47.480;8.768;2024-03-08T08:45:42;4.13;;;2.67;;
38264;SDS011;24062;47.480;8.768;2024-03-08T08:48:12;3.30;;;3.00;;
38264;SDS011;24062;47.480;8.768;2024-03-08T08:50:39;3.27;;;2.47;;
38264;SDS011;24062;47.480;8.768;2024-03-08T08:53:08;4.23;;;2.70;;
38264;SDS011;24062;47.480;8.768;2024-03-08T08:55:35;3.53;;;2.90;;
38264;SDS011;24062;47.480;8.768;2024-03-08T08:58:02;2.70;;;2.50;;
38264;SDS011;24062;47.480;8.768;2024-03-08T09:00:29;3.73;;;2.67;;
38264;SDS011;24062;47.480;8.768;2024-03-08T09:02:56;2.87;;;2.63;;
38264;SDS011;24062;47.480;8.768;2024-03-08T09:05:24;3.13;;;2.83;;
38264;SDS011;24062;47.480;8.768;2024-03-08T09:07:51;2.90;;;2.57;;
38264;SDS011;24062;47.480;8.768;2024-03-08T09:10:20;2.83;;;2.53;;
38264;SDS011;24062;47.480;8.768;2024-03-08T09:12:47;2.67;;;2.40;;
38264;SDS011;24062;47.480;8.768;2024-03-08T09:15:14;2.80;;;2.50;;
38264;SDS011;24062;47.480;8.768;2024-03-08T09:17:42;3.43;;;2.57;;
38264;SDS011;24062;47.480;8.768;2024-03-08T09:20:10;6.83;;;2.20;;
38264;SDS011;24062;47.480;8.768;2024-03-08T09:22:40;2.77;;;2.10;;
38264;SDS011;24062;47.480;8.768;2024-03-08T09:25:08;3.40;;;2.77;;
38264;SDS011;24062;47.480;8.768;2024-03-08T09:27:36;2.50;;;2.27;;
38264;SDS011;24062;47.480;8.768;2024-03-08T09:30:05;2.93;;;2.47;;
38264;SDS011;24062;47.480;8.768;2024-03-08T09:32:32;3.60;;;2.40;;
38264;SDS011;24062;47.480;8.768;2024-03-08T09:34:59;4.30;;;3.00;;
38264;SDS011;24062;47.480;8.768;2024-03-08T09:37:26;2.53;;;2.33;;
38264;SDS011;24062;47.480;8.768;2024-03-08T09:39:53;2.80;;;2.47;;
38264;SDS011;24062;47.480;8.768;2024-03-08T09:42:20;2.40;;;2.20;;
38264;SDS011;24062;47.480;8.768;2024-03-08T09:44:48;2.87;;;2.50;;
38264;SDS011;24062;47.480;8.768;2024-03-08T09:47:15;2.30;;;1.90;;
38264;SDS011;24062;47.480;8.768;2024-03-08T09:49:44;2.27;;;1.80;;
38264;SDS011;24062;47.480;8.768;2024-03-08T09:52:11;2.60;;;2.40;;
38264;SDS011;24062;47.480;8.768;2024-03-08T09:54:38;4.90;;;2.43;;
38264;SDS011;24062;47.480;8.768;2024-03-08T09:57:09;2.43;;;2.20;;
38264;SDS011;24062;47.480;8.768;2024-03-08T09:59:37;2.20;;;1.80;;
38264;SDS011;24062;47.480;8.768;2024-03-08T10:02:14;2.20;;;2.00;;
38264;SDS011;24062;47.480;8.768;2024-03-08T10:04:42;2.63;;;2.23;;
38264;SDS011;24062;47.480;8.768;2024-03-08T10:07:11;2.90;;;2.00;;
38264;SDS011;24062;47.480;8.768;2024-03-08T10:09:38;2.30;;;2.00;;
38264;SDS011;24062;47.480;8.768;2024-03-08T10:12:06;2.07;;;1.87;;
38264;SDS011;24062;47.480;8.768;2024-03-08T10:14:34;3.70;;;2.30;;
38264;SDS011;24062;47.480;8.768;2024-03-08T10:17:06;2.40;;;2.13;;
38264;SDS011;24062;47.480;8.768;2024-03-08T10:19:34;2.30;;;1.80;;
38264;SDS011;24062;47.480;8.768;2024-03-08T10:22:01;4.40;;;2.60;;
38264;SDS011;24062;47.480;8.768;2024-03-08T10:24:33;2.57;;;1.90;;
38264;SDS011;24062;47.480;8.768;2024-03-08T10:27:00;2.50;;;2.20;;
38264;SDS011;24062;47.480;8.768;2024-03-08T10:29:30;2.40;;;2.10;;
38264;SDS011;24062;47.480;8.768;2024-03-08T10:31:57;4.00;;;2.30;;
38264;SDS011;24062;47.480;8.768;2024-03-08T10:34:25;3.80;;;2.10;;
38264;SDS011;24062;47.480;8.768;2024-03-08T10:36:53;2.63;;;2.20;;
38264;SDS011;24062;47.480;8.768;2024-03-08T10:39:25;2.60;;;2.20;;
38264;SDS011;24062;47.480;8.768;2024-03-08T10:41:56;3.30;;;2.27;;
38264;SDS011;24062;47.480;8.768;2024-03-08T10:44:32;5.00;;;2.00;;
38264;SDS011;24062;47.480;8.768;2024-03-08T10:47:09;2.40;;;1.97;;
38264;SDS011;24062;47.480;8.768;2024-03-08T10:49:43;2.03;;;1.73;;
38264;SDS011;24062;47.480;8.768;2024-03-08T10:52:20;3.27;;;2.00;;
38264;SDS011;24062;47.480;8.768;2024-03-08T10:54:48;2.20;;;2.00;;
38264;SDS011;24062;47.480;8.768;2024-03-08T10:57:17;2.17;;;1.83;;
38264;SDS011;24062;47.480;8.768;2024-03-08T10:59:45;2.33;;;2.03;;
38264;SDS011;24062;47.480;8.768;2024-03-08T11:02:14;6.93;;;2.47;;
38264;SDS011;24062;47.480;8.768;2024-03-08T11:04:45;2.40;;;1.70;;
38264;SDS011;24062;47.480;8.768;2024-03-08T11:07:14;2.70;;;2.07;;
38264;SDS011;24062;47.480;8.768;2024-03-08T11:09:46;5.13;;;2.53;;
38264;SDS011;24062;47.480;8.768;2024-03-08T11:12:23;2.60;;;2.30;;
38264;SDS011;24062;47.480;8.768;2024-03-08T11:14:54;3.23;;;2.60;;
38264;SDS011;24062;47.480;8.768;2024-03-08T11:17:25;2.70;;;2.20;;
38264;SDS011;24062;47.480;8.768;2024-03-08T11:20:08;4.00;;;2.90;;
38264;SDS011;24062;47.480;8.768;2024-03-08T11:22:40;3.57;;;3.00;;
38264;SDS011;24062;47.480;8.768;2024-03-08T11:25:30;4.90;;;3.23;;
38264;SDS011;24062;47.480;8.768;2024-03-08T11:28:11;3.50;;;3.20;;
38264;SDS011;24062;47.480;8.768;2024-03-08T11:30:45;9.17;;;6.40;;
38264;SDS011;24062;47.480;8.768;2024-03-08T11:33:14;12.50;;;8.83;;
38264;SDS011;24062;47.480;8.768;2024-03-08T11:35:42;27.17;;;15.03;;
38264;SDS011;24062;47.480;8.768;2024-03-08T11:38:11;24.03;;;15.07;;
38264;SDS011;24062;47.480;8.768;2024-03-08T11:40:40;43.23;;;26.63;;
38264;SDS011;24062;47.480;8.768;2024-03-08T11:43:08;53.60;;;32.33;;
38264;SDS011;24062;47.480;8.768;2024-03-08T11:45:35;62.90;;;35.90;;
38264;SDS011;24062;47.480;8.768;2024-03-08T11:48:03;73.20;;;42.77;;
38264;SDS011;24062;47.480;8.768;2024-03-08T11:50:30;61.53;;;40.40;;
38264;SDS011;24062;47.480;8.768;2024-03-08T11:53:01;79.87;;;44.77;;
38264;SDS011;24062;47.480;8.768;2024-03-08T11:55:29;62.63;;;41.53;;
38264;SDS011;24062;47.480;8.768;2024-03-08T11:58:01;67.67;;;42.70;;
38264;SDS011;24062;47.480;8.768;2024-03-08T12:00:29;74.33;;;47.63;;
38264;SDS011;24062;47.480;8.768;2024-03-08T12:03:03;105.13;;;67.33;;
38264;SDS011;24062;47.480;8.768;2024-03-08T12:05:31;90.60;;;56.40;;
38264;SDS011;24062;47.480;8.768;2024-03-08T12:07:58;88.03;;;58.40;;
38264;SDS011;24062;47.480;8.768;2024-03-08T12:10:25;105.97;;;68.43;;
38264;SDS011;24062;47.480;8.768;2024-03-08T12:12:53;116.90;;;68.27;;
38264;SDS011;24062;47.480;8.768;2024-03-08T12:15:25;120.53;;;78.90;;
38264;SDS011;24062;47.480;8.768;2024-03-08T12:17:54;107.60;;;70.33;;
38264;SDS011;24062;47.480;8.768;2024-03-08T12:20:23;110.60;;;71.53;;
38264;SDS011;24062;47.480;8.768;2024-03-08T12:22:51;107.80;;;72.60;;
38264;SDS011;24062;47.480;8.768;2024-03-08T12:25:21;101.77;;;68.00;;
38264;SDS011;24062;47.480;8.768;2024-03-08T12:27:48;109.83;;;70.33;;
38264;SDS011;24062;47.480;8.768;2024-03-08T12:30:18;109.97;;;73.73;;
38264;SDS011;24062;47.480;8.768;2024-03-08T12:32:52;101.43;;;71.00;;
38264;SDS011;24062;47.480;8.768;2024-03-08T12:35:21;98.00;;;66.40;;
38264;SDS011;24062;47.480;8.768;2024-03-08T12:37:50;103.43;;;69.53;;
38264;SDS011;24062;47.480;8.768;2024-03-08T12:40:18;108.80;;;70.23;;
38264;SDS011;24062;47.480;8.768;2024-03-08T12:42:46;104.17;;;68.93;;
38264;SDS011;24062;47.480;8.768;2024-03-08T12:45:13;102.90;;;67.67;;
38264;SDS011;24062;47.480;8.768;2024-03-08T12:47:41;97.20;;;65.07;;
38264;SDS011;24062;47.480;8.768;2024-03-08T12:50:10;99.83;;;61.90;;
38264;SDS011;24062;47.480;8.768;2024-03-08T12:52:37;89.57;;;64.70;;
38264;SDS011;24062;47.480;8.768;2024-03-08T12:55:04;88.97;;;59.20;;
38264;SDS011;24062;47.480;8.768;2024-03-08T12:57:33;96.40;;;60.60;;
38264;SDS011;24062;47.480;8.768;2024-03-08T13:00:02;78.53;;;56.50;;
38264;SDS011;24062;47.480;8.768;2024-03-08T13:02:37;80.90;;;55.90;;
38264;SDS011;24062;47.480;8.768;2024-03-08T13:05:04;77.27;;;54.67;;
38264;SDS011;24062;47.480;8.768;2024-03-08T13:07:36;74.47;;;52.80;;
38264;SDS011;24062;47.480;8.768;2024-03-08T13:10:03;72.20;;;50.90;;
38264;SDS011;24062;47.480;8.768;2024-03-08T13:12:32;69.47;;;51.17;;
38264;SDS011;24062;47.480;8.768;2024-03-08T13:15:01;64.13;;;45.77;;
38264;SDS011;24062;47.480;8.768;2024-03-08T13:17:30;63.67;;;46.23;;
38264;SDS011;24062;47.480;8.768;2024-03-08T13:19:56;66.70;;;45.40;;
38264;SDS011;24062;47.480;8.768;2024-03-08T13:22:24;64.23;;;44.90;;
38264;SDS011;24062;47.480;8.768;2024-03-08T13:24:52;63.97;;;44.00;;
38264;SDS011;24062;47.480;8.768;2024-03-08T13:27:19;63.70;;;40.87;;
38264;SDS011;24062;47.480;8.768;2024-03-08T13:29:47;58.27;;;41.50;;
38264;SDS011;24062;47.480;8.768;2024-03-08T13:32:14;53.30;;;38.90;;
38264;SDS011;24062;47.480;8.768;2024-03-08T13:34:42;52.50;;;37.07;;
38264;SDS011;24062;47.480;8.768;2024-03-08T13:37:10;48.27;;;37.47;;
38264;SDS011;24062;47.480;8.768;2024-03-08T13:39:37;41.90;;;31.83;;
38264;SDS011;24062;47.480;8.768;2024-03-08T13:42:10;39.77;;;31.13;;
38264;SDS011;24062;47.480;8.768;2024-03-08T13:44:38;38.87;;;31.23;;
38264;SDS011;24062;47.480;8.768;2024-03-08T13:47:06;36.00;;;27.63;;
38264;SDS011;24062;47.480;8.768;2024-03-08T13:49:33;37.67;;;27.40;;
38264;SDS011;24062;47.480;8.768;2024-03-08T13:52:01;34.10;;;25.43;;
38264;SDS011;24062;47.480;8.768;2024-03-08T13:54:29;31.30;;;25.80;;
38264;SDS011;24062;47.480;8.768;2024-03-08T13:56:56;34.13;;;25.37;;
38264;SDS011;24062;47.480;8.768;2024-03-08T13:59:25;33.87;;;23.30;;
38264;SDS011;24062;47.480;8.768;2024-03-08T14:01:54;31.60;;;22.53;;
38264;SDS011;24062;47.480;8.768;2024-03-08T14:04:22;24.50;;;20.80;;
38264;SDS011;24062;47.480;8.768;2024-03-08T14:06:51;31.30;;;22.73;;
38264;SDS011;24062;47.480;8.768;2024-03-08T14:09:21;22.80;;;19.30;;
38264;SDS011;24062;47.480;8.768;2024-03-08T14:11:49;29.00;;;20.90;;
38264;SDS011;24062;47.480;8.768;2024-03-08T14:14:19;26.67;;;21.23;;
38264;SDS011;24062;47.480;8.768;2024-03-08T14:16:47;23.90;;;19.07;;
38264;SDS011;24062;47.480;8.768;2024-03-08T14:19:14;29.20;;;19.60;;
38264;SDS011;24062;47.480;8.768;2024-03-08T14:21:41;24.00;;;18.53;;
38264;SDS011;24062;47.480;8.768;2024-03-08T14:24:08;27.10;;;18.97;;
38264;SDS011;24062;47.480;8.768;2024-03-08T14:26:35;22.27;;;17.87;;
38264;SDS011;24062;47.480;8.768;2024-03-08T14:29:03;24.20;;;17.90;;
38264;SDS011;24062;47.480;8.768;2024-03-08T14:31:30;22.20;;;15.33;;
38264;SDS011;24062;47.480;8.768;2024-03-08T14:33:58;20.97;;;15.90;;
38264;SDS011;24062;47.480;8.768;2024-03-08T14:36:25;17.70;;;15.27;;
38264;SDS011;24062;47.480;8.768;2024-03-08T14:38:53;20.73;;;15.70;;
38264;SDS011;24062;47.480;8.768;2024-03-08T14:41:20;19.10;;;15.37;;
38264;SDS011;24062;47.480;8.768;2024-03-08T14:43:47;18.23;;;16.13;;
38264;SDS011;24062;47.480;8.768;2024-03-08T14:46:14;18.67;;;15.07;;